SAZM/MDD METAR and TAF weather

Enter ICAO airport designator
Station Type Date Time Source
SAZM METAR 2021/05/10 01:00 UTC NOAA

SAZM 100100Z 32004KT 7000 NSC 11/10 Q1021


Station Type Date Time Source
SAZM Decoded METAR 2021/05/10 01:00 UTC NOAA

Mar Del Plata Aerodrome, Argentina (SAZM) 37-56S 057-35W 21M
May 09, 2021 - 09:00 PM EDT / 2021.05.10 0100 UTC
Wind: from the NW (320 degrees) at 5 MPH (4 KT):0
Visibility: 4 mile(s):0
Temperature: 51 F (11 C)
Dew Point: 50 F (10 C)
Relative Humidity: 93%
Pressure (altimeter): 30.15 in. Hg (1021 hPa)
ob: SAZM 100100Z 32004KT 7000 NSC 11/10 Q1021
cycle: 1

Station Type Date Time Source
SAZM TAF 2021/05/10 00:00 UTC NOAA

TAF SAZM 092300Z 1000/1024 34005KT 4000 BR NSC TX14/1018Z TN08/1010Z
TEMPO 1002/1010 0800 FG
BECMG 1010/1012 25015KT CAVOK
TEMPO 1014/1021 22015G30KT PROB40 1017/1024 8000 SHRA BKN030 FEW035TCU

Example: see airport list